French Village, Canada
Current Conditions -  °F | °C
As of 4:00 AM on Saturday 29 Nov 2014 (Local Time) from CYHZ Reporting Station
Overcast Overcast  
Wind Chill: 15°   Ceiling: 4000
Heat Index: 25°   Visibility: 15mi
Dew Point: 21°   Wind: 9mph
Humidity: 86%   Direction: 300°WNW
Pressure: 30.01"   Gusts: NA
Location:  44.7°N, 63.88°W
Report Text: CYHZ 290800Z 30008KT 15SM BKN040 OVC100 M04/M06 A3001 RMK SC5AC3 SLP170
Loading
Personal Weather Stations






























Interactive Weather Map New forecast layout! Learn more

10-Day Weather Forecast

Advertisements
Track Severe Weather on mobile